sensor_id;sensor_type;location;lat;lon;timestamp;pressure;altitude;pressure_sealevel;temperature;humidity
55466;BME280;41329;41.594;23.810;2023-04-15T00:00:57;94590.00;;;11.12;73.63
55466;BME280;41329;41.594;23.810;2023-04-15T00:03:23;94587.25;;;11.19;73.83
55466;BME280;41329;41.594;23.810;2023-04-15T00:05:49;94573.78;;;11.21;73.60
55466;BME280;41329;41.594;23.810;2023-04-15T00:08:14;94564.28;;;11.12;73.80
55466;BME280;41329;41.594;23.810;2023-04-15T00:10:40;94556.78;;;11.16;73.50
55466;BME280;41329;41.594;23.810;2023-04-15T00:13:08;94555.22;;;11.22;73.54
55466;BME280;41329;41.594;23.810;2023-04-15T00:15:34;94538.59;;;11.15;73.26
55466;BME280;41329;41.594;23.810;2023-04-15T00:17:59;94554.44;;;11.28;73.32
55466;BME280;41329;41.594;23.810;2023-04-15T00:20:25;94561.53;;;11.29;73.10
55466;BME280;41329;41.594;23.810;2023-04-15T00:22:50;94559.16;;;11.24;72.97
55466;BME280;41329;41.594;23.810;2023-04-15T00:25:16;94552.81;;;11.24;73.04
55466;BME280;41329;41.594;23.810;2023-04-15T00:27:42;94570.66;;;11.33;73.16
55466;BME280;41329;41.594;23.810;2023-04-15T00:30:08;94568.66;;;11.30;72.64
55466;BME280;41329;41.594;23.810;2023-04-15T00:32:33;94570.25;;;11.24;72.38
55466;BME280;41329;41.594;23.810;2023-04-15T00:34:59;94567.09;;;11.26;72.14
55466;BME280;41329;41.594;23.810;2023-04-15T00:37:25;94569.06;;;11.25;72.26
55466;BME280;41329;41.594;23.810;2023-04-15T00:39:50;94559.16;;;11.17;72.42
55466;BME280;41329;41.594;23.810;2023-04-15T00:42:17;94569.44;;;11.24;72.41
55466;BME280;41329;41.594;23.810;2023-04-15T00:44:42;94553.63;;;11.14;72.32
55466;BME280;41329;41.594;23.810;2023-04-15T00:47:08;94569.81;;;11.22;72.70
55466;BME280;41329;41.594;23.810;2023-04-15T00:49:34;94575.34;;;11.12;72.65
55466;BME280;41329;41.594;23.810;2023-04-15T00:51:59;94582.88;;;11.15;72.69
55466;BME280;41329;41.594;23.810;2023-04-15T00:54:24;94566.28;;;11.15;72.83
55466;BME280;41329;41.594;23.810;2023-04-15T00:56:50;94575.78;;;11.14;72.89
55466;BME280;41329;41.594;23.810;2023-04-15T00:59:17;94571.81;;;11.15;72.97
55466;BME280;41329;41.594;23.810;2023-04-15T01:01:43;94569.84;;;11.15;73.03
55466;BME280;41329;41.594;23.810;2023-04-15T01:04:09;94583.69;;;11.22;73.17
55466;BME280;41329;41.594;23.810;2023-04-15T01:06:36;94578.56;;;11.24;73.40
55466;BME280;41329;41.594;23.810;2023-04-15T01:09:02;94577.34;;;11.25;73.37
55466;BME280;41329;41.594;23.810;2023-04-15T01:11:28;94577.34;;;11.29;73.29
55466;BME280;41329;41.594;23.810;2023-04-15T01:13:55;94580.16;;;11.32;72.75
55466;BME280;41329;41.594;23.810;2023-04-15T01:16:22;94565.88;;;11.23;72.30
55466;BME280;41329;41.594;23.810;2023-04-15T01:18:48;94594.34;;;11.17;72.66
55466;BME280;41329;41.594;23.810;2023-04-15T01:21:13;94590.38;;;11.11;73.02
55466;BME280;41329;41.594;23.810;2023-04-15T01:23:39;94600.69;;;11.21;72.73
55466;BME280;41329;41.594;23.810;2023-04-15T01:26:05;94591.56;;;11.17;72.38
55466;BME280;41329;41.594;23.810;2023-04-15T01:28:33;94577.31;;;11.08;72.40
55466;BME280;41329;41.594;23.810;2023-04-15T01:31:10;94589.19;;;11.12;72.11
55466;BME280;41329;41.594;23.810;2023-04-15T01:33:37;94590.00;;;11.16;71.88
55466;BME280;41329;41.594;23.810;2023-04-15T01:36:04;94593.16;;;11.07;71.54
55466;BME280;41329;41.594;23.810;2023-04-15T01:38:31;94574.91;;;10.96;70.91
55466;BME280;41329;41.594;23.810;2023-04-15T01:40:56;94584.81;;;11.04;71.01
55466;BME280;41329;41.594;23.810;2023-04-15T01:43:24;94586.03;;;11.03;71.48
55466;BME280;41329;41.594;23.810;2023-04-15T01:45:49;94582.44;;;10.88;71.62
55466;BME280;41329;41.594;23.810;2023-04-15T01:48:15;94583.97;;;10.79;71.79
55466;BME280;41329;41.594;23.810;2023-04-15T01:50:41;94591.91;;;10.84;71.88
55466;BME280;41329;41.594;23.810;2023-04-15T01:53:07;94585.97;;;10.78;71.72
55466;BME280;41329;41.594;23.810;2023-04-15T01:55:32;94606.53;;;10.81;71.81
55466;BME280;41329;41.594;23.810;2023-04-15T01:57:58;94602.94;;;10.77;71.34
55466;BME280;41329;41.594;23.810;2023-04-15T02:00:23;94612.06;;;10.77;71.37
55466;BME280;41329;41.594;23.810;2023-04-15T02:02:49;94589.09;;;10.66;71.66
55466;BME280;41329;41.594;23.810;2023-04-15T02:05:14;94600.53;;;10.61;71.49
55466;BME280;41329;41.594;23.810;2023-04-15T02:07:41;94598.53;;;10.62;71.61
55466;BME280;41329;41.594;23.810;2023-04-15T02:10:08;94610.84;;;10.68;72.48
55466;BME280;41329;41.594;23.810;2023-04-15T02:12:34;94612.41;;;10.65;73.03
55466;BME280;41329;41.594;23.810;2023-04-15T02:15:00;94623.84;;;10.64;73.59
55466;BME280;41329;41.594;23.810;2023-04-15T02:17:26;94612.38;;;10.62;73.94
55466;BME280;41329;41.594;23.810;2023-04-15T02:19:51;94615.56;;;10.67;74.16
55466;BME280;41329;41.594;23.810;2023-04-15T02:22:17;94602.13;;;10.66;74.09
55466;BME280;41329;41.594;23.810;2023-04-15T02:24:43;94589.09;;;10.66;73.83
55466;BME280;41329;41.594;23.810;2023-04-15T02:27:08;94603.34;;;10.72;73.85
55466;BME280;41329;41.594;23.810;2023-04-15T02:29:36;94591.47;;;10.68;73.61
55466;BME280;41329;41.594;23.810;2023-04-15T02:32:02;94567.69;;;10.46;74.01
55466;BME280;41329;41.594;23.810;2023-04-15T02:34:27;94594.63;;;10.66;74.07
55466;BME280;41329;41.594;23.810;2023-04-15T02:36:52;94589.47;;;10.61;74.23
55466;BME280;41329;41.594;23.810;2023-04-15T02:39:21;94591.03;;;10.59;74.30
55466;BME280;41329;41.594;23.810;2023-04-15T02:41:47;94598.56;;;10.65;74.57
55466;BME280;41329;41.594;23.810;2023-04-15T02:44:16;94592.25;;;10.68;74.51
55466;BME280;41329;41.594;23.810;2023-04-15T02:46:45;94585.09;;;10.60;74.58
55466;BME280;41329;41.594;23.810;2023-04-15T02:49:14;94587.50;;;10.65;74.79
55466;BME280;41329;41.594;23.810;2023-04-15T02:51:40;94587.84;;;10.60;75.15
55466;BME280;41329;41.594;23.810;2023-04-15T02:54:06;94585.50;;;10.59;74.90
55466;BME280;41329;41.594;23.810;2023-04-15T02:56:32;94590.63;;;10.60;74.42
55466;BME280;41329;41.594;23.810;2023-04-15T02:58:57;94603.69;;;10.63;74.47
55466;BME280;41329;41.594;23.810;2023-04-15T03:01:23;94613.19;;;10.66;74.49
55466;BME280;41329;41.594;23.810;2023-04-15T03:03:48;94609.50;;;10.37;74.66
55466;BME280;41329;41.594;23.810;2023-04-15T03:06:13;94609.88;;;10.36;74.83
55466;BME280;41329;41.594;23.810;2023-04-15T03:08:39;94614.59;;;10.32;74.84
55466;BME280;41329;41.594;23.810;2023-04-15T03:11:04;94598.31;;;10.13;75.23
55466;BME280;41329;41.594;23.810;2023-04-15T03:13:30;94613.41;;;10.26;75.23
55466;BME280;41329;41.594;23.810;2023-04-15T03:15:55;94627.28;;;10.40;75.49
55466;BME280;41329;41.594;23.810;2023-04-15T03:18:21;94632.44;;;10.38;75.63
55466;BME280;41329;41.594;23.810;2023-04-15T03:20:47;94618.94;;;10.33;75.46
55466;BME280;41329;41.594;23.810;2023-04-15T03:23:13;94609.84;;;10.29;75.57
55466;BME280;41329;41.594;23.810;2023-04-15T03:25:38;94639.59;;;10.46;75.53
55466;BME280;41329;41.594;23.810;2023-04-15T03:28:04;94624.53;;;10.40;75.42
55466;BME280;41329;41.594;23.810;2023-04-15T03:30:29;94637.59;;;10.50;75.32
55466;BME280;41329;41.594;23.810;2023-04-15T03:32:55;94634.44;;;10.44;75.44
55466;BME280;41329;41.594;23.810;2023-04-15T03:35:21;94626.53;;;10.46;75.26
55466;BME280;41329;41.594;23.810;2023-04-15T03:37:46;94636.03;;;10.49;75.07
55466;BME280;41329;41.594;23.810;2023-04-15T03:40:13;94638.81;;;10.52;75.32
55466;BME280;41329;41.594;23.810;2023-04-15T03:42:39;94642.00;;;10.58;75.44
55466;BME280;41329;41.594;23.810;2023-04-15T03:45:05;94618.25;;;10.50;75.20
55466;BME280;41329;41.594;23.810;2023-04-15T03:47:31;94638.44;;;10.57;75.26
55466;BME280;41329;41.594;23.810;2023-04-15T03:49:57;94634.81;;;10.43;75.26
55466;BME280;41329;41.594;23.810;2023-04-15T03:52:22;94650.94;;;10.30;75.71
55466;BME280;41329;41.594;23.810;2023-04-15T03:54:48;94652.59;;;10.42;75.80
55466;BME280;41329;41.594;23.810;2023-04-15T03:57:13;94657.75;;;10.47;75.75
55466;BME280;41329;41.594;23.810;2023-04-15T03:59:38;94642.31;;;10.42;75.46
55466;BME280;41329;41.594;23.810;2023-04-15T04:02:04;94645.13;;;10.53;75.56
55466;BME280;41329;41.594;23.810;2023-04-15T04:04:29;94624.94;;;10.45;75.84
55466;BME280;41329;41.594;23.810;2023-04-15T04:06:55;94623.75;;;10.46;75.67
55466;BME280;41329;41.594;23.810;2023-04-15T04:09:21;94655.47;;;10.63;75.71
55466;BME280;41329;41.594;23.810;2023-04-15T04:11:46;94651.09;;;10.58;75.41
55466;BME280;41329;41.594;23.810;2023-04-15T04:14:12;94660.59;;;10.64;75.56
55466;BME280;41329;41.594;23.810;2023-04-15T04:16:37;94652.28;;;10.57;75.75
55466;BME280;41329;41.594;23.810;2023-04-15T04:19:02;94653.03;;;10.54;75.93
55466;BME280;41329;41.594;23.810;2023-04-15T04:21:28;94651.44;;;10.50;75.93
55466;BME280;41329;41.594;23.810;2023-04-15T04:23:54;94687.91;;;10.73;76.09
55466;BME280;41329;41.594;23.810;2023-04-15T04:26:20;94692.69;;;10.79;76.26
55466;BME280;41329;41.594;23.810;2023-04-15T04:28:46;94701.38;;;10.81;76.24
55466;BME280;41329;41.594;23.810;2023-04-15T04:31:12;94692.31;;;10.77;76.24
55466;BME280;41329;41.594;23.810;2023-04-15T04:33:37;94685.53;;;10.75;76.22
55466;BME280;41329;41.594;23.810;2023-04-15T04:36:03;94701.81;;;10.87;76.06
55466;BME280;41329;41.594;23.810;2023-04-15T04:38:29;94700.66;;;10.88;75.83
55466;BME280;41329;41.594;23.810;2023-04-15T04:40:54;94695.13;;;10.88;76.03
55466;BME280;41329;41.594;23.810;2023-04-15T04:43:20;94711.72;;;10.95;75.89
55466;BME280;41329;41.594;23.810;2023-04-15T04:45:46;94715.69;;;10.97;75.86
55466;BME280;41329;41.594;23.810;2023-04-15T04:48:11;94717.69;;;11.00;75.89
55466;BME280;41329;41.594;23.810;2023-04-15T04:50:37;94711.34;;;11.00;75.80
55466;BME280;41329;41.594;23.810;2023-04-15T04:53:02;94714.53;;;11.05;75.71
55466;BME280;41329;41.594;23.810;2023-04-15T04:55:28;94724.06;;;11.11;75.64
55466;BME280;41329;41.594;23.810;2023-04-15T04:57:53;94697.94;;;11.02;75.42
55466;BME280;41329;41.594;23.810;2023-04-15T05:00:18;94710.63;;;11.13;75.42
55466;BME280;41329;41.594;23.810;2023-04-15T05:02:44;94697.56;;;11.10;75.47
55466;BME280;41329;41.594;23.810;2023-04-15T05:05:10;94704.31;;;11.16;75.67
55466;BME280;41329;41.594;23.810;2023-04-15T05:07:36;94717.00;;;11.24;75.53
55466;BME280;41329;41.594;23.810;2023-04-15T05:10:03;94728.50;;;11.33;75.57
55466;BME280;41329;41.594;23.810;2023-04-15T05:12:28;94721.78;;;11.34;75.68
55466;BME280;41329;41.594;23.810;2023-04-15T05:14:54;94732.84;;;11.34;75.37
55466;BME280;41329;41.594;23.810;2023-04-15T05:17:19;94728.88;;;11.28;75.71
55466;BME280;41329;41.594;23.810;2023-04-15T05:19:44;94738.00;;;11.39;75.85
55466;BME280;41329;41.594;23.810;2023-04-15T05:22:10;94730.88;;;11.38;75.98
55466;BME280;41329;41.594;23.810;2023-04-15T05:24:35;94743.47;;;11.15;76.73
55466;BME280;41329;41.594;23.810;2023-04-15T05:27:01;94739.88;;;11.07;77.29
55466;BME280;41329;41.594;23.810;2023-04-15T05:29:26;94743.81;;;11.06;77.65
55466;BME280;41329;41.594;23.810;2023-04-15T05:31:52;94735.09;;;11.04;78.10
55466;BME280;41329;41.594;23.810;2023-04-15T05:34:17;94736.25;;;10.96;78.58
55466;BME280;41329;41.594;23.810;2023-04-15T05:36:43;94750.84;;;10.90;78.72
55466;BME280;41329;41.594;23.810;2023-04-15T05:39:08;94758.38;;;10.93;78.63
55466;BME280;41329;41.594;23.810;2023-04-15T05:41:34;94739.03;;;10.93;77.80
55466;BME280;41329;41.594;23.810;2023-04-15T05:43:59;94752.47;;;10.94;77.37
55466;BME280;41329;41.594;23.810;2023-04-15T05:46:25;94750.47;;;10.88;77.73
55466;BME280;41329;41.594;23.810;2023-04-15T05:48:51;94765.91;;;10.96;77.51
55466;BME280;41329;41.594;23.810;2023-04-15T05:51:17;94769.94;;;11.09;77.54
55466;BME280;41329;41.594;23.810;2023-04-15T05:53:42;94767.56;;;11.14;77.57
55466;BME280;41329;41.594;23.810;2023-04-15T05:56:08;94767.22;;;11.19;77.21
55466;BME280;41329;41.594;23.810;2023-04-15T05:58:33;94779.13;;;11.30;77.02
55466;BME280;41329;41.594;23.810;2023-04-15T06:00:58;94765.59;;;11.15;77.30
55466;BME280;41329;41.594;23.810;2023-04-15T06:03:24;94761.47;;;10.77;78.53
55466;BME280;41329;41.594;23.810;2023-04-15T06:05:50;94770.53;;;10.78;78.98
55466;BME280;41329;41.594;23.810;2023-04-15T06:08:15;94770.88;;;10.66;79.62
55466;BME280;41329;41.594;23.810;2023-04-15T06:10:41;94768.88;;;10.63;80.68
55466;BME280;41329;41.594;23.810;2023-04-15T06:13:07;94772.75;;;10.51;80.61
55466;BME280;41329;41.594;23.810;2023-04-15T06:15:32;94767.28;;;10.62;81.03
55466;BME280;41329;41.594;23.810;2023-04-15T06:17:58;94782.00;;;10.76;81.66
55466;BME280;41329;41.594;23.810;2023-04-15T06:20:23;94785.66;;;10.91;81.41
55466;BME280;41329;41.594;23.810;2023-04-15T06:22:49;94784.13;;;11.04;80.54
55466;BME280;41329;41.594;23.810;2023-04-15T06:25:15;94785.38;;;11.10;79.29
55466;BME280;41329;41.594;23.810;2023-04-15T06:27:41;94784.06;;;10.86;79.77
55466;BME280;41329;41.594;23.810;2023-04-15T06:30:07;94780.91;;;10.95;80.48
55466;BME280;41329;41.594;23.810;2023-04-15T06:32:32;94780.22;;;11.05;80.30
55466;BME280;41329;41.594;23.810;2023-04-15T06:34:58;94786.50;;;11.05;80.36
55466;BME280;41329;41.594;23.810;2023-04-15T06:37:23;94792.56;;;11.28;79.47
55466;BME280;41329;41.594;23.810;2023-04-15T06:39:49;94794.59;;;11.35;78.73
55466;BME280;41329;41.594;23.810;2023-04-15T06:42:15;94792.09;;;11.16;78.36
55466;BME280;41329;41.594;23.810;2023-04-15T06:44:41;94793.34;;;11.22;78.98
55466;BME280;41329;41.594;23.810;2023-04-15T06:47:06;94802.09;;;11.34;78.82
55466;BME280;41329;41.594;23.810;2023-04-15T06:49:33;94794.81;;;11.02;79.55
55466;BME280;41329;41.594;23.810;2023-04-15T06:51:59;94795.56;;;10.95;79.80
55466;BME280;41329;41.594;23.810;2023-04-15T06:54:25;94803.09;;;10.98;79.13
55466;BME280;41329;41.594;23.810;2023-04-15T06:56:51;94795.47;;;10.81;79.52
55466;BME280;41329;41.594;23.810;2023-04-15T06:59:16;94785.63;;;10.84;79.78
55466;BME280;41329;41.594;23.810;2023-04-15T07:01:42;94789.22;;;10.88;80.26
55466;BME280;41329;41.594;23.810;2023-04-15T07:04:08;94804.00;;;11.20;81.38
55466;BME280;41329;41.594;23.810;2023-04-15T07:06:33;94802.81;;;11.21;79.80
55466;BME280;41329;41.594;23.810;2023-04-15T07:09:00;94811.09;;;11.17;78.80
55466;BME280;41329;41.594;23.810;2023-04-15T07:11:25;94817.72;;;11.02;79.45
55466;BME280;41329;41.594;23.810;2023-04-15T07:13:51;94801.81;;;10.82;79.60
55466;BME280;41329;41.594;23.810;2023-04-15T07:16:16;94759.84;;;10.69;80.59
55466;BME280;41329;41.594;23.810;2023-04-15T07:18:42;94804.69;;;11.03;80.76
55466;BME280;41329;41.594;23.810;2023-04-15T07:21:08;94794.88;;;11.12;80.98
55466;BME280;41329;41.594;23.810;2023-04-15T07:23:33;94817.13;;;11.33;80.81
55466;BME280;41329;41.594;23.810;2023-04-15T07:25:59;94823.09;;;11.42;78.86
55466;BME280;41329;41.594;23.810;2023-04-15T07:28:25;94809.66;;;11.48;79.54
55466;BME280;41329;41.594;23.810;2023-04-15T07:30:50;94802.63;;;11.61;79.00
55466;BME280;41329;41.594;23.810;2023-04-15T07:33:16;94809.38;;;11.74;78.34
55466;BME280;41329;41.594;23.810;2023-04-15T07:35:41;94800.69;;;11.79;78.63
55466;BME280;41329;41.594;23.810;2023-04-15T07:38:09;94813.78;;;11.89;78.58
55466;BME280;41329;41.594;23.810;2023-04-15T07:40:37;94797.97;;;11.93;78.48
55466;BME280;41329;41.594;23.810;2023-04-15T07:43:03;94787.66;;;11.93;77.78
55466;BME280;41329;41.594;23.810;2023-04-15T07:45:30;94816.22;;;12.29;76.79
55466;BME280;41329;41.594;23.810;2023-04-15T07:47:55;94817.84;;;12.44;74.04
55466;BME280;41329;41.594;23.810;2023-04-15T07:50:21;94813.47;;;12.50;74.88
55466;BME280;41329;41.594;23.810;2023-04-15T07:52:48;94818.63;;;12.59;72.28
55466;BME280;41329;41.594;23.810;2023-04-15T07:55:14;94818.22;;;12.64;73.40
55466;BME280;41329;41.594;23.810;2023-04-15T07:57:41;94817.41;;;12.84;74.04
55466;BME280;41329;41.594;23.810;2023-04-15T08:00:07;94817.44;;;13.02;73.10
55466;BME280;41329;41.594;23.810;2023-04-15T08:02:33;94793.22;;;12.95;69.94
55466;BME280;41329;41.594;23.810;2023-04-15T08:04:59;94804.69;;;13.18;72.41
55466;BME280;41329;41.594;23.810;2023-04-15T08:07:27;94795.13;;;13.33;69.96
55466;BME280;41329;41.594;23.810;2023-04-15T08:09:52;94790.31;;;13.48;69.49
55466;BME280;41329;41.594;23.810;2023-04-15T08:12:18;94768.47;;;13.50;67.18
55466;BME280;41329;41.594;23.810;2023-04-15T08:14:43;94793.00;;;13.69;69.41
55466;BME280;41329;41.594;23.810;2023-04-15T08:17:08;94778.22;;;13.86;68.69
55466;BME280;41329;41.594;23.810;2023-04-15T08:19:34;94786.88;;;13.98;66.61
55466;BME280;41329;41.594;23.810;2023-04-15T08:21:59;94779.63;;;14.11;67.04
55466;BME280;41329;41.594;23.810;2023-04-15T08:24:25;94794.63;;;14.35;65.78
55466;BME280;41329;41.594;23.810;2023-04-15T08:26:51;94792.16;;;14.47;62.61
55466;BME280;41329;41.594;23.810;2023-04-15T08:29:17;94782.22;;;14.46;62.87
55466;BME280;41329;41.594;23.810;2023-04-15T08:31:43;94763.69;;;14.22;60.69
55466;BME280;41329;41.594;23.810;2023-04-15T08:34:10;94785.31;;;14.55;62.56
55466;BME280;41329;41.594;23.810;2023-04-15T08:36:36;94767.81;;;14.55;62.02
55466;BME280;41329;41.594;23.810;2023-04-15T08:39:01;94747.41;;;14.17;59.00
55466;BME280;41329;41.594;23.810;2023-04-15T08:41:33;94774.75;;;14.33;58.25
55466;BME280;41329;41.594;23.810;2023-04-15T08:44:04;94770.75;;;14.37;59.27
55466;BME280;41329;41.594;23.810;2023-04-15T08:46:31;94776.38;;;14.78;60.58
55466;BME280;41329;41.594;23.810;2023-04-15T08:48:59;94763.94;;;14.89;57.85
55466;BME280;41329;41.594;23.810;2023-04-15T08:51:26;94754.25;;;15.01;58.78
55466;BME280;41329;41.594;23.810;2023-04-15T08:53:51;94755.75;;;15.12;54.63
55466;BME280;41329;41.594;23.810;2023-04-15T08:56:18;94773.19;;;15.20;56.03
55466;BME280;41329;41.594;23.810;2023-04-15T08:58:45;94768.97;;;15.42;54.49
55466;BME280;41329;41.594;23.810;2023-04-15T09:01:12;94765.69;;;15.50;52.30
55466;BME280;41329;41.594;23.810;2023-04-15T09:03:38;94771.38;;;15.73;51.89
55466;BME280;41329;41.594;23.810;2023-04-15T09:06:05;94768.09;;;15.82;50.00
55466;BME280;41329;41.594;23.810;2023-04-15T09:08:31;94767.47;;;15.97;48.49
55466;BME280;41329;41.594;23.810;2023-04-15T09:10:58;94773.09;;;16.20;50.28
55466;BME280;41329;41.594;23.810;2023-04-15T09:13:24;94765.06;;;16.26;48.63
55466;BME280;41329;41.594;23.810;2023-04-15T09:15:49;94764.69;;;16.50;45.02
55466;BME280;41329;41.594;23.810;2023-04-15T09:18:29;94771.88;;;16.74;46.42
55466;BME280;41329;41.594;23.810;2023-04-15T09:20:55;94758.22;;;16.80;42.77
55466;BME280;41329;41.594;23.810;2023-04-15T09:23:22;94776.09;;;17.09;42.81
55466;BME280;41329;41.594;23.810;2023-04-15T09:25:47;94764.22;;;17.24;44.08
55466;BME280;41329;41.594;23.810;2023-04-15T09:28:13;94754.34;;;17.39;43.96
55466;BME280;41329;41.594;23.810;2023-04-15T09:30:41;94765.06;;;17.44;46.22
55466;BME280;41329;41.594;23.810;2023-04-15T09:33:13;94764.22;;;17.47;43.76
55466;BME280;41329;41.594;23.810;2023-04-15T09:35:39;94752.56;;;17.49;43.83
55466;BME280;41329;41.594;23.810;2023-04-15T09:38:08;94746.63;;;17.47;44.24
55466;BME280;41329;41.594;23.810;2023-04-15T09:40:36;94749.09;;;17.64;44.44
55466;BME280;41329;41.594;23.810;2023-04-15T09:43:03;94753.91;;;18.00;42.90
55466;BME280;41329;41.594;23.810;2023-04-15T09:45:30;94746.28;;;18.20;41.79
55466;BME280;41329;41.594;23.810;2023-04-15T09:48:13;94728.97;;;18.25;42.14
55466;BME280;41329;41.594;23.810;2023-04-15T09:50:42;94743.72;;;18.45;41.33
55466;BME280;41329;41.594;23.810;2023-04-15T09:53:18;94734.91;;;18.46;40.83
55466;BME280;41329;41.594;23.810;2023-04-15T09:55:51;94729.19;;;18.34;42.05
55466;BME280;41329;41.594;23.810;2023-04-15T09:58:23;94734.63;;;18.57;40.74
55466;BME280;41329;41.594;23.810;2023-04-15T10:00:50;94729.28;;;18.62;41.34
55466;BME280;41329;41.594;23.810;2023-04-15T10:05:51;94709.41;;;18.73;40.72
55466;BME280;41329;41.594;23.810;2023-04-15T10:08:18;94722.72;;;18.85;41.64
55466;BME280;41329;41.594;23.810;2023-04-15T10:10:45;94715.69;;;18.77;39.88
55466;BME280;41329;41.594;23.810;2023-04-15T10:13:13;94716.06;;;18.79;40.18
55466;BME280;41329;41.594;23.810;2023-04-15T10:15:43;94716.38;;;18.33;38.96
55466;BME280;41329;41.594;23.810;2023-04-15T10:18:10;94714.34;;;18.33;38.34
55466;BME280;41329;41.594;23.810;2023-04-15T10:20:36;94713.34;;;18.43;39.51
55466;BME280;41329;41.594;23.810;2023-04-15T10:23:03;94702.84;;;18.47;38.34
55466;BME280;41329;41.594;23.810;2023-04-15T10:25:29;94689.88;;;18.53;36.63
55466;BME280;41329;41.594;23.810;2023-04-15T10:27:55;94691.22;;;18.49;37.73
55466;BME280;41329;41.594;23.810;2023-04-15T10:30:22;94708.09;;;18.61;37.73
55466;BME280;41329;41.594;23.810;2023-04-15T10:32:48;94696.97;;;18.58;37.78
55466;BME280;41329;41.594;23.810;2023-04-15T10:35:14;94680.19;;;18.58;36.26
55466;BME280;41329;41.594;23.810;2023-04-15T10:37:40;94690.84;;;18.63;35.29
55466;BME280;41329;41.594;23.810;2023-04-15T10:40:26;94691.88;;;18.85;36.83
55466;BME280;41329;41.594;23.810;2023-04-15T10:42:55;94677.53;;;18.83;34.07
55466;BME280;41329;41.594;23.810;2023-04-15T10:45:21;94689.88;;;18.85;33.44
55466;BME280;41329;41.594;23.810;2023-04-15T10:47:56;94669.13;;;18.67;33.58
55466;BME280;41329;41.594;23.810;2023-04-15T10:50:25;94691.72;;;18.76;32.67
55466;BME280;41329;41.594;23.810;2023-04-15T10:52:51;94689.78;;;18.73;33.61
55466;BME280;41329;41.594;23.810;2023-04-15T10:55:24;94670.44;;;18.62;32.18
55466;BME280;41329;41.594;23.810;2023-04-15T10:57:55;94683.84;;;18.71;32.06
55466;BME280;41329;41.594;23.810;2023-04-15T11:00:28;94682.41;;;18.95;33.83
55466;BME280;41329;41.594;23.810;2023-04-15T11:02:56;94692.84;;;19.23;32.86
55466;BME280;41329;41.594;23.810;2023-04-15T11:05:47;94648.38;;;19.09;31.12
55466;BME280;41329;41.594;23.810;2023-04-15T11:08:09;94689.91;;;19.42;31.90
55466;BME280;41329;41.594;23.810;2023-04-15T11:13:12;94686.06;;;19.65;34.24
55466;BME280;41329;41.594;23.810;2023-04-15T11:15:40;94688.81;;;19.81;33.63
55466;BME280;41329;41.594;23.810;2023-04-15T11:18:22;94683.84;;;19.72;32.33
55466;BME280;41329;41.594;23.810;2023-04-15T11:20:50;94698.34;;;19.42;31.50
55466;BME280;41329;41.594;23.810;2023-04-15T11:23:27;94695.31;;;19.37;31.41
55466;BME280;41329;41.594;23.810;2023-04-15T11:25:54;94712.72;;;19.00;29.74
55466;BME280;41329;41.594;23.810;2023-04-15T11:28:24;94700.97;;;19.05;30.86
55466;BME280;41329;41.594;23.810;2023-04-15T11:30:50;94696.19;;;19.18;31.53
55466;BME280;41329;41.594;23.810;2023-04-15T11:33:16;94710.31;;;19.30;31.43
55466;BME280;41329;41.594;23.810;2023-04-15T11:35:42;94710.75;;;19.29;31.20
55466;BME280;41329;41.594;23.810;2023-04-15T11:38:10;94692.00;;;19.26;30.59
55466;BME280;41329;41.594;23.810;2023-04-15T11:40:39;94669.47;;;19.29;31.40
55466;BME280;41329;41.594;23.810;2023-04-15T11:43:12;94700.03;;;19.81;33.40
55466;BME280;41329;41.594;23.810;2023-04-15T11:45:50;94662.91;;;19.89;32.46
55466;BME280;41329;41.594;23.810;2023-04-15T11:48:16;94696.84;;;20.20;29.94
55466;BME280;41329;41.594;23.810;2023-04-15T11:50:42;94681.25;;;20.31;32.70
55466;BME280;41329;41.594;23.810;2023-04-15T11:53:09;94681.00;;;20.38;30.63
55466;BME280;41329;41.594;23.810;2023-04-15T11:55:42;94698.72;;;19.98;30.37
55466;BME280;41329;41.594;23.810;2023-04-15T12:00:35;94694.31;;;19.84;30.76
55466;BME280;41329;41.594;23.810;2023-04-15T12:03:11;94692.38;;;19.69;30.43
55466;BME280;41329;41.594;23.810;2023-04-15T12:06:03;94694.09;;;19.79;30.64
55466;BME280;41329;41.594;23.810;2023-04-15T12:11:51;94699.47;;;19.45;32.13
55466;BME280;41329;41.594;23.810;2023-04-15T12:14:32;94698.41;;;19.26;31.66
55466;BME280;41329;41.594;23.810;2023-04-15T12:17:02;94701.16;;;19.42;32.09
55466;BME280;41329;41.594;23.810;2023-04-15T12:19:36;94689.88;;;19.58;31.60
55466;BME280;41329;41.594;23.810;2023-04-15T12:22:13;94700.91;;;19.78;32.90
55466;BME280;41329;41.594;23.810;2023-04-15T12:24:41;94706.56;;;19.90;33.01
55466;BME280;41329;41.594;23.810;2023-04-15T12:27:14;94707.25;;;20.07;33.85
55466;BME280;41329;41.594;23.810;2023-04-15T12:29:40;94709.31;;;20.06;35.50
55466;BME280;41329;41.594;23.810;2023-04-15T12:32:12;94698.16;;;20.03;35.76
55466;BME280;41329;41.594;23.810;2023-04-15T12:34:38;94705.44;;;20.00;32.84
55466;BME280;41329;41.594;23.810;2023-04-15T12:37:06;94688.97;;;20.02;31.37
55466;BME280;41329;41.594;23.810;2023-04-15T12:39:38;94707.06;;;19.60;35.95
55466;BME280;41329;41.594;23.810;2023-04-15T12:42:04;94705.06;;;19.45;35.62
55466;BME280;41329;41.594;23.810;2023-04-15T12:44:30;94697.75;;;19.35;34.87
55466;BME280;41329;41.594;23.810;2023-04-15T12:46:57;94702.81;;;19.40;34.33
55466;BME280;41329;41.594;23.810;2023-04-15T12:49:24;94703.44;;;19.47;33.54
55466;BME280;41329;41.594;23.810;2023-04-15T12:51:51;94698.41;;;19.67;31.50
55466;BME280;41329;41.594;23.810;2023-04-15T12:54:17;94701.28;;;19.80;30.05
55466;BME280;41329;41.594;23.810;2023-04-15T12:56:44;94697.34;;;19.90;30.46
55466;BME280;41329;41.594;23.810;2023-04-15T12:59:10;94690.78;;;20.09;29.03